Carneys Point Township, New Jersey
Current Conditions -  °F | °C
As of 4:51 AM on Wednesday 26 Nov 2014 (Local Time) from KILG Reporting Station
Light Rain Light Rain  
Wind Chill:   Ceiling: 6000
Heat Index:   Visibility: 10mi
Dew Point:   Wind: 10mph
Humidity: 66%   Direction: 20°NNE
Pressure: 30.07"   Gusts: NA
Location:  39.6981°N, 75.4502°W
Report Text: KILG 260951Z 02009KT 10SM -RA OVC060 08/02 A3007 RMK AO2 RAB0854 SLP183 P0000 T00780017
Loading
Personal Weather Stations






























Interactive Weather Map New forecast layout! Learn more

10-Day Weather Forecast

Advertisements
Track Severe Weather on mobile